sensor_id;sensor_type;location;lat;lon;timestamp;temperature;humidity
33207;DHT22;19565;46.602;11.534;2022-08-21T00:01:09;20.60;87.20
33207;DHT22;19565;46.602;11.534;2022-08-21T00:03:37;20.60;87.70
33207;DHT22;19565;46.602;11.534;2022-08-21T00:06:07;20.50;87.60
33207;DHT22;19565;46.602;11.534;2022-08-21T00:08:40;20.40;86.70
33207;DHT22;19565;46.602;11.534;2022-08-21T00:11:08;20.40;86.80
33207;DHT22;19565;46.602;11.534;2022-08-21T00:13:37;20.40;86.70
33207;DHT22;19565;46.602;11.534;2022-08-21T00:16:05;20.40;87.20
33207;DHT22;19565;46.602;11.534;2022-08-21T00:18:33;20.40;88.00
33207;DHT22;19565;46.602;11.534;2022-08-21T00:21:02;20.40;87.90
33207;DHT22;19565;46.602;11.534;2022-08-21T00:23:33;20.40;88.20
33207;DHT22;19565;46.602;11.534;2022-08-21T00:26:02;20.40;88.10
33207;DHT22;19565;46.602;11.534;2022-08-21T00:28:30;20.40;88.10
33207;DHT22;19565;46.602;11.534;2022-08-21T00:30:59;20.40;87.60
33207;DHT22;19565;46.602;11.534;2022-08-21T00:33:27;20.40;87.50
33207;DHT22;19565;46.602;11.534;2022-08-21T00:35:55;20.40;87.70
33207;DHT22;19565;46.602;11.534;2022-08-21T00:38:23;20.40;87.60
33207;DHT22;19565;46.602;11.534;2022-08-21T00:40:56;20.40;87.00
33207;DHT22;19565;46.602;11.534;2022-08-21T00:43:30;20.40;87.20
33207;DHT22;19565;46.602;11.534;2022-08-21T00:45:59;20.40;87.00
33207;DHT22;19565;46.602;11.534;2022-08-21T00:48:27;20.40;87.00
33207;DHT22;19565;46.602;11.534;2022-08-21T00:50:58;20.40;86.40
33207;DHT22;19565;46.602;11.534;2022-08-21T00:53:26;20.40;86.00
33207;DHT22;19565;46.602;11.534;2022-08-21T00:55:59;20.40;87.30
33207;DHT22;19565;46.602;11.534;2022-08-21T00:58:30;20.40;87.70
33207;DHT22;19565;46.602;11.534;2022-08-21T01:01:00;19.90;87.10
33207;DHT22;19565;46.602;11.534;2022-08-21T01:03:35;19.30;89.90
33207;DHT22;19565;46.602;11.534;2022-08-21T01:06:09;19.10;90.90
33207;DHT22;19565;46.602;11.534;2022-08-21T01:08:38;19.30;91.00
33207;DHT22;19565;46.602;11.534;2022-08-21T01:11:14;19.40;90.10
33207;DHT22;19565;46.602;11.534;2022-08-21T01:13:43;19.20;90.40
33207;DHT22;19565;46.602;11.534;2022-08-21T01:16:15;19.30;90.30
33207;DHT22;19565;46.602;11.534;2022-08-21T01:18:45;19.40;90.30
33207;DHT22;19565;46.602;11.534;2022-08-21T01:21:18;19.60;90.20
33207;DHT22;19565;46.602;11.534;2022-08-21T01:23:48;19.70;90.00
33207;DHT22;19565;46.602;11.534;2022-08-21T01:26:19;19.70;89.10
33207;DHT22;19565;46.602;11.534;2022-08-21T01:28:51;19.70;89.00
33207;DHT22;19565;46.602;11.534;2022-08-21T01:31:21;19.90;89.50
33207;DHT22;19565;46.602;11.534;2022-08-21T01:33:52;20.00;89.80
33207;DHT22;19565;46.602;11.534;2022-08-21T01:36:22;20.00;89.80
33207;DHT22;19565;46.602;11.534;2022-08-21T01:38:50;20.00;89.90
33207;DHT22;19565;46.602;11.534;2022-08-21T01:41:19;19.90;89.20
33207;DHT22;19565;46.602;11.534;2022-08-21T01:43:47;19.90;89.50
33207;DHT22;19565;46.602;11.534;2022-08-21T01:46:15;19.90;89.20
33207;DHT22;19565;46.602;11.534;2022-08-21T01:48:44;19.60;88.90
33207;DHT22;19565;46.602;11.534;2022-08-21T01:51:12;19.20;90.20
33207;DHT22;19565;46.602;11.534;2022-08-21T01:53:42;19.10;90.90
33207;DHT22;19565;46.602;11.534;2022-08-21T01:56:12;19.20;91.20
33207;DHT22;19565;46.602;11.534;2022-08-21T01:58:42;19.00;91.20
33207;DHT22;19565;46.602;11.534;2022-08-21T02:01:11;18.70;91.90
33207;DHT22;19565;46.602;11.534;2022-08-21T02:03:39;18.80;91.90
33207;DHT22;19565;46.602;11.534;2022-08-21T02:06:12;18.70;92.00
33207;DHT22;19565;46.602;11.534;2022-08-21T02:08:43;18.60;92.50
33207;DHT22;19565;46.602;11.534;2022-08-21T02:11:11;18.50;92.70
33207;DHT22;19565;46.602;11.534;2022-08-21T02:13:39;18.30;92.90
33207;DHT22;19565;46.602;11.534;2022-08-21T02:16:08;18.20;93.30
33207;DHT22;19565;46.602;11.534;2022-08-21T02:18:45;18.20;93.60
33207;DHT22;19565;46.602;11.534;2022-08-21T02:21:13;18.10;93.60
33207;DHT22;19565;46.602;11.534;2022-08-21T02:23:43;18.00;93.90
33207;DHT22;19565;46.602;11.534;2022-08-21T02:26:12;17.90;94.00
33207;DHT22;19565;46.602;11.534;2022-08-21T02:28:40;18.10;93.70
33207;DHT22;19565;46.602;11.534;2022-08-21T02:31:09;18.40;93.70
33207;DHT22;19565;46.602;11.534;2022-08-21T02:33:37;18.60;93.10
33207;DHT22;19565;46.602;11.534;2022-08-21T02:36:06;18.50;93.20
33207;DHT22;19565;46.602;11.534;2022-08-21T02:38:35;18.70;92.90
33207;DHT22;19565;46.602;11.534;2022-08-21T02:41:08;18.80;92.30
33207;DHT22;19565;46.602;11.534;2022-08-21T02:43:37;18.80;92.40
33207;DHT22;19565;46.602;11.534;2022-08-21T02:46:07;18.70;92.20
33207;DHT22;19565;46.602;11.534;2022-08-21T02:48:36;18.80;92.30
33207;DHT22;19565;46.602;11.534;2022-08-21T02:51:06;19.00;92.10
33207;DHT22;19565;46.602;11.534;2022-08-21T02:53:35;19.00;91.80
33207;DHT22;19565;46.602;11.534;2022-08-21T02:56:08;18.90;91.70
33207;DHT22;19565;46.602;11.534;2022-08-21T02:58:39;18.90;91.60
33207;DHT22;19565;46.602;11.534;2022-08-21T03:01:09;18.80;92.00
33207;DHT22;19565;46.602;11.534;2022-08-21T03:03:40;18.60;92.30
33207;DHT22;19565;46.602;11.534;2022-08-21T03:06:11;18.60;92.50
33207;DHT22;19565;46.602;11.534;2022-08-21T03:08:40;18.30;93.10
33207;DHT22;19565;46.602;11.534;2022-08-21T03:11:09;18.40;93.20
33207;DHT22;19565;46.602;11.534;2022-08-21T03:13:39;18.60;92.90
33207;DHT22;19565;46.602;11.534;2022-08-21T03:16:08;18.50;92.50
33207;DHT22;19565;46.602;11.534;2022-08-21T03:18:37;18.60;92.50
33207;DHT22;19565;46.602;11.534;2022-08-21T03:21:05;18.50;92.60
33207;DHT22;19565;46.602;11.534;2022-08-21T03:23:34;18.60;92.70
33207;DHT22;19565;46.602;11.534;2022-08-21T03:26:03;18.70;92.50
33207;DHT22;19565;46.602;11.534;2022-08-21T03:28:32;18.70;92.10
33207;DHT22;19565;46.602;11.534;2022-08-21T03:31:00;18.90;92.10
33207;DHT22;19565;46.602;11.534;2022-08-21T03:33:28;18.50;92.60
33207;DHT22;19565;46.602;11.534;2022-08-21T03:35:59;18.10;93.40
33207;DHT22;19565;46.602;11.534;2022-08-21T03:38:29;17.80;94.10
33207;DHT22;19565;46.602;11.534;2022-08-21T03:40:58;18.00;94.20
33207;DHT22;19565;46.602;11.534;2022-08-21T03:43:27;17.90;94.40
33207;DHT22;19565;46.602;11.534;2022-08-21T03:46:00;17.80;94.70
33207;DHT22;19565;46.602;11.534;2022-08-21T03:48:29;17.60;95.10
33207;DHT22;19565;46.602;11.534;2022-08-21T03:50:57;17.70;94.70
33207;DHT22;19565;46.602;11.534;2022-08-21T03:53:25;18.00;94.60
33207;DHT22;19565;46.602;11.534;2022-08-21T03:55:54;18.30;94.50
33207;DHT22;19565;46.602;11.534;2022-08-21T03:58:25;18.40;94.10
33207;DHT22;19565;46.602;11.534;2022-08-21T04:00:55;18.50;93.60
33207;DHT22;19565;46.602;11.534;2022-08-21T04:03:27;18.60;93.30
33207;DHT22;19565;46.602;11.534;2022-08-21T04:05:56;18.50;93.40
33207;DHT22;19565;46.602;11.534;2022-08-21T04:08:24;18.10;94.00
33207;DHT22;19565;46.602;11.534;2022-08-21T04:10:55;17.70;94.70
33207;DHT22;19565;46.602;11.534;2022-08-21T04:13:25;17.40;95.90
33207;DHT22;19565;46.602;11.534;2022-08-21T04:15:55;17.30;96.40
33207;DHT22;19565;46.602;11.534;2022-08-21T04:18:24;17.50;96.00
33207;DHT22;19565;46.602;11.534;2022-08-21T04:20:56;17.80;95.60
33207;DHT22;19565;46.602;11.534;2022-08-21T04:23:25;17.70;95.50
33207;DHT22;19565;46.602;11.534;2022-08-21T04:25:54;17.80;95.30
33207;DHT22;19565;46.602;11.534;2022-08-21T04:28:25;17.50;95.60
33207;DHT22;19565;46.602;11.534;2022-08-21T04:30:57;17.70;95.70
33207;DHT22;19565;46.602;11.534;2022-08-21T04:33:25;17.90;95.20
33207;DHT22;19565;46.602;11.534;2022-08-21T04:35:55;17.40;95.80
33207;DHT22;19565;46.602;11.534;2022-08-21T04:38:23;17.20;96.40
33207;DHT22;19565;46.602;11.534;2022-08-21T04:40:51;16.90;97.30
33207;DHT22;19565;46.602;11.534;2022-08-21T04:43:20;16.80;97.80
33207;DHT22;19565;46.602;11.534;2022-08-21T04:45:51;16.80;98.00
33207;DHT22;19565;46.602;11.534;2022-08-21T04:48:21;17.00;97.90
33207;DHT22;19565;46.602;11.534;2022-08-21T04:50:56;17.10;97.50
33207;DHT22;19565;46.602;11.534;2022-08-21T04:53:27;17.40;97.10
33207;DHT22;19565;46.602;11.534;2022-08-21T04:56:02;17.70;96.80
33207;DHT22;19565;46.602;11.534;2022-08-21T04:58:31;17.80;95.90
33207;DHT22;19565;46.602;11.534;2022-08-21T05:01:01;17.90;95.60
33207;DHT22;19565;46.602;11.534;2022-08-21T05:03:32;17.90;95.60
33207;DHT22;19565;46.602;11.534;2022-08-21T05:06:03;18.10;95.30
33207;DHT22;19565;46.602;11.534;2022-08-21T05:08:33;18.10;95.10
33207;DHT22;19565;46.602;11.534;2022-08-21T05:11:02;17.90;95.20
33207;DHT22;19565;46.602;11.534;2022-08-21T05:13:30;17.70;95.80
33207;DHT22;19565;46.602;11.534;2022-08-21T05:15:59;17.40;96.40
33207;DHT22;19565;46.602;11.534;2022-08-21T05:18:27;17.30;97.00
33207;DHT22;19565;46.602;11.534;2022-08-21T05:20:56;17.20;97.10
33207;DHT22;19565;46.602;11.534;2022-08-21T05:23:25;17.20;97.40
33207;DHT22;19565;46.602;11.534;2022-08-21T05:25:54;17.30;97.10
33207;DHT22;19565;46.602;11.534;2022-08-21T05:28:22;17.40;96.70
33207;DHT22;19565;46.602;11.534;2022-08-21T05:30:52;17.50;96.50
33207;DHT22;19565;46.602;11.534;2022-08-21T05:33:21;17.40;96.40
33207;DHT22;19565;46.602;11.534;2022-08-21T05:35:50;17.60;96.40
33207;DHT22;19565;46.602;11.534;2022-08-21T05:38:19;17.40;96.40
33207;DHT22;19565;46.602;11.534;2022-08-21T05:40:48;17.50;96.60
33207;DHT22;19565;46.602;11.534;2022-08-21T05:43:17;17.50;96.20
33207;DHT22;19565;46.602;11.534;2022-08-21T05:45:45;17.50;96.30
33207;DHT22;19565;46.602;11.534;2022-08-21T05:48:15;17.50;96.00
33207;DHT22;19565;46.602;11.534;2022-08-21T05:50:45;17.30;96.50
33207;DHT22;19565;46.602;11.534;2022-08-21T05:53:15;17.40;96.40
33207;DHT22;19565;46.602;11.534;2022-08-21T05:55:44;17.60;96.40
33207;DHT22;19565;46.602;11.534;2022-08-21T05:58:15;17.60;96.20
33207;DHT22;19565;46.602;11.534;2022-08-21T06:00:45;17.70;96.00
33207;DHT22;19565;46.602;11.534;2022-08-21T06:03:23;17.90;95.60
33207;DHT22;19565;46.602;11.534;2022-08-21T06:05:51;18.00;95.40
33207;DHT22;19565;46.602;11.534;2022-08-21T06:08:20;18.10;95.10
33207;DHT22;19565;46.602;11.534;2022-08-21T06:10:50;18.00;94.90
33207;DHT22;19565;46.602;11.534;2022-08-21T06:13:20;18.10;94.90
33207;DHT22;19565;46.602;11.534;2022-08-21T06:15:49;18.20;94.90
33207;DHT22;19565;46.602;11.534;2022-08-21T06:18:18;18.30;94.60
33207;DHT22;19565;46.602;11.534;2022-08-21T06:20:46;18.40;94.20
33207;DHT22;19565;46.602;11.534;2022-08-21T06:23:14;18.50;94.30
33207;DHT22;19565;46.602;11.534;2022-08-21T06:25:42;18.60;94.60
33207;DHT22;19565;46.602;11.534;2022-08-21T06:28:10;18.60;94.10
33207;DHT22;19565;46.602;11.534;2022-08-21T06:30:40;18.50;93.80
33207;DHT22;19565;46.602;11.534;2022-08-21T06:33:09;18.30;93.80
33207;DHT22;19565;46.602;11.534;2022-08-21T06:35:37;18.30;94.20
33207;DHT22;19565;46.602;11.534;2022-08-21T06:38:07;18.20;94.30
33207;DHT22;19565;46.602;11.534;2022-08-21T06:40:36;18.10;94.30
33207;DHT22;19565;46.602;11.534;2022-08-21T06:43:15;18.00;94.30
33207;DHT22;19565;46.602;11.534;2022-08-21T06:45:45;18.10;94.30
33207;DHT22;19565;46.602;11.534;2022-08-21T06:48:13;18.30;94.10
33207;DHT22;19565;46.602;11.534;2022-08-21T06:50:45;18.30;93.80
33207;DHT22;19565;46.602;11.534;2022-08-21T06:53:15;18.40;93.80
33207;DHT22;19565;46.602;11.534;2022-08-21T06:55:45;18.50;93.80
33207;DHT22;19565;46.602;11.534;2022-08-21T06:58:14;18.70;93.60
33207;DHT22;19565;46.602;11.534;2022-08-21T07:00:45;18.80;93.40
33207;DHT22;19565;46.602;11.534;2022-08-21T07:03:19;18.90;93.40
33207;DHT22;19565;46.602;11.534;2022-08-21T07:05:47;18.90;93.60
33207;DHT22;19565;46.602;11.534;2022-08-21T07:08:15;19.10;93.10
33207;DHT22;19565;46.602;11.534;2022-08-21T07:10:44;19.20;93.00
33207;DHT22;19565;46.602;11.534;2022-08-21T07:13:13;19.30;92.60
33207;DHT22;19565;46.602;11.534;2022-08-21T07:15:41;19.40;92.30
33207;DHT22;19565;46.602;11.534;2022-08-21T07:18:11;19.40;92.00
33207;DHT22;19565;46.602;11.534;2022-08-21T07:20:40;19.50;92.00
33207;DHT22;19565;46.602;11.534;2022-08-21T07:23:11;19.70;92.20
33207;DHT22;19565;46.602;11.534;2022-08-21T07:25:40;19.70;92.20
33207;DHT22;19565;46.602;11.534;2022-08-21T07:28:08;19.90;91.60
33207;DHT22;19565;46.602;11.534;2022-08-21T07:30:37;19.90;91.20
33207;DHT22;19565;46.602;11.534;2022-08-21T07:33:05;20.00;90.70
33207;DHT22;19565;46.602;11.534;2022-08-21T07:35:35;20.10;90.30
33207;DHT22;19565;46.602;11.534;2022-08-21T07:38:03;20.10;90.00
33207;DHT22;19565;46.602;11.534;2022-08-21T07:40:31;20.20;90.00
33207;DHT22;19565;46.602;11.534;2022-08-21T07:42:59;20.30;90.10
33207;DHT22;19565;46.602;11.534;2022-08-21T07:45:28;20.40;90.30
33207;DHT22;19565;46.602;11.534;2022-08-21T07:47:56;20.40;89.70
33207;DHT22;19565;46.602;11.534;2022-08-21T07:50:24;20.50;89.50
33207;DHT22;19565;46.602;11.534;2022-08-21T07:52:54;20.60;89.90
33207;DHT22;19565;46.602;11.534;2022-08-21T07:55:22;20.70;89.20
33207;DHT22;19565;46.602;11.534;2022-08-21T07:57:51;20.70;87.70
33207;DHT22;19565;46.602;11.534;2022-08-21T08:00:21;20.80;87.60
33207;DHT22;19565;46.602;11.534;2022-08-21T08:02:51;20.80;87.40
33207;DHT22;19565;46.602;11.534;2022-08-21T08:05:23;20.90;87.70
33207;DHT22;19565;46.602;11.534;2022-08-21T08:07:51;21.00;86.10
33207;DHT22;19565;46.602;11.534;2022-08-21T08:10:22;21.10;86.90
33207;DHT22;19565;46.602;11.534;2022-08-21T08:12:51;21.20;87.00
33207;DHT22;19565;46.602;11.534;2022-08-21T08:15:26;21.20;84.50
33207;DHT22;19565;46.602;11.534;2022-08-21T08:17:55;21.30;85.40
33207;DHT22;19565;46.602;11.534;2022-08-21T08:20:25;21.40;85.00
33207;DHT22;19565;46.602;11.534;2022-08-21T08:22:54;21.50;84.40
33207;DHT22;19565;46.602;11.534;2022-08-21T08:25:25;21.50;83.10
33207;DHT22;19565;46.602;11.534;2022-08-21T08:28:02;21.60;81.30
33207;DHT22;19565;46.602;11.534;2022-08-21T08:30:43;21.70;79.10
33207;DHT22;19565;46.602;11.534;2022-08-21T08:33:12;21.80;79.10
33207;DHT22;19565;46.602;11.534;2022-08-21T08:35:40;21.80;77.90
33207;DHT22;19565;46.602;11.534;2022-08-21T08:38:09;21.90;77.10
33207;DHT22;19565;46.602;11.534;2022-08-21T08:40:43;22.00;78.40
33207;DHT22;19565;46.602;11.534;2022-08-21T08:43:13;22.10;77.70
33207;DHT22;19565;46.602;11.534;2022-08-21T08:45:45;22.10;77.10
33207;DHT22;19565;46.602;11.534;2022-08-21T08:48:31;22.20;76.10
33207;DHT22;19565;46.602;11.534;2022-08-21T08:51:01;22.20;76.60
33207;DHT22;19565;46.602;11.534;2022-08-21T08:53:33;22.30;76.10
33207;DHT22;19565;46.602;11.534;2022-08-21T08:56:05;22.40;75.30
33207;DHT22;19565;46.602;11.534;2022-08-21T08:58:37;22.40;74.40
33207;DHT22;19565;46.602;11.534;2022-08-21T09:01:12;22.70;68.70
33207;DHT22;19565;46.602;11.534;2022-08-21T09:03:42;22.90;67.60
33207;DHT22;19565;46.602;11.534;2022-08-21T09:09:14;23.20;66.40
33207;DHT22;19565;46.602;11.534;2022-08-21T09:11:52;23.20;66.70
33207;DHT22;19565;46.602;11.534;2022-08-21T09:14:32;23.30;66.00
33207;DHT22;19565;46.602;11.534;2022-08-21T09:17:13;23.30;63.50
33207;DHT22;19565;46.602;11.534;2022-08-21T09:19:56;23.50;61.90
33207;DHT22;19565;46.602;11.534;2022-08-21T09:22:43;23.50;60.50
33207;DHT22;19565;46.602;11.534;2022-08-21T09:25:21;23.70;58.70
33207;DHT22;19565;46.602;11.534;2022-08-21T09:27:51;23.80;57.10
33207;DHT22;19565;46.602;11.534;2022-08-21T09:30:26;23.90;56.50
33207;DHT22;19565;46.602;11.534;2022-08-21T09:32:55;23.90;57.00
33207;DHT22;19565;46.602;11.534;2022-08-21T09:35:24;23.90;56.40
33207;DHT22;19565;46.602;11.534;2022-08-21T09:37:55;24.00;55.80
33207;DHT22;19565;46.602;11.534;2022-08-21T09:40:35;24.00;54.90
33207;DHT22;19565;46.602;11.534;2022-08-21T09:43:10;24.10;56.30
33207;DHT22;19565;46.602;11.534;2022-08-21T09:45:44;24.10;55.80
33207;DHT22;19565;46.602;11.534;2022-08-21T09:48:14;24.00;56.00
33207;DHT22;19565;46.602;11.534;2022-08-21T09:50:43;24.10;54.90
33207;DHT22;19565;46.602;11.534;2022-08-21T09:53:19;24.20;53.90
33207;DHT22;19565;46.602;11.534;2022-08-21T09:55:52;24.20;53.30
33207;DHT22;19565;46.602;11.534;2022-08-21T09:58:41;24.20;52.50
33207;DHT22;19565;46.602;11.534;2022-08-21T10:01:14;24.30;51.30
33207;DHT22;19565;46.602;11.534;2022-08-21T10:03:42;24.40;51.80
33207;DHT22;19565;46.602;11.534;2022-08-21T10:06:22;24.60;50.60
33207;DHT22;19565;46.602;11.534;2022-08-21T10:08:50;24.60;48.80
33207;DHT22;19565;46.602;11.534;2022-08-21T10:11:24;24.80;50.80
33207;DHT22;19565;46.602;11.534;2022-08-21T10:14:01;24.80;48.60
33207;DHT22;19565;46.602;11.534;2022-08-21T10:16:38;24.90;48.10
33207;DHT22;19565;46.602;11.534;2022-08-21T10:19:17;25.00;47.10
33207;DHT22;19565;46.602;11.534;2022-08-21T10:22:03;25.00;46.60
33207;DHT22;19565;46.602;11.534;2022-08-21T10:24:41;25.00;46.10
33207;DHT22;19565;46.602;11.534;2022-08-21T10:27:18;25.10;47.90
33207;DHT22;19565;46.602;11.534;2022-08-21T10:29:57;25.30;45.00
33207;DHT22;19565;46.602;11.534;2022-08-21T10:32:41;25.30;45.00
33207;DHT22;19565;46.602;11.534;2022-08-21T10:35:13;25.30;44.90
33207;DHT22;19565;46.602;11.534;2022-08-21T10:40:36;25.50;45.20
33207;DHT22;19565;46.602;11.534;2022-08-21T10:43:19;25.50;45.10
33207;DHT22;19565;46.602;11.534;2022-08-21T10:45:57;25.60;44.10
33207;DHT22;19565;46.602;11.534;2022-08-21T10:48:35;25.70;43.40
33207;DHT22;19565;46.602;11.534;2022-08-21T10:51:12;25.80;42.90
33207;DHT22;19565;46.602;11.534;2022-08-21T10:53:54;25.90;43.30
33207;DHT22;19565;46.602;11.534;2022-08-21T10:56:25;25.90;42.90
33207;DHT22;19565;46.602;11.534;2022-08-21T10:59:04;26.00;42.10
33207;DHT22;19565;46.602;11.534;2022-08-21T11:01:42;26.10;41.90
33207;DHT22;19565;46.602;11.534;2022-08-21T11:04:15;26.10;42.80
33207;DHT22;19565;46.602;11.534;2022-08-21T11:06:47;26.20;42.40
33207;DHT22;19565;46.602;11.534;2022-08-21T11:09:20;26.10;42.90
33207;DHT22;19565;46.602;11.534;2022-08-21T11:11:54;26.10;43.10
33207;DHT22;19565;46.602;11.534;2022-08-21T11:14:45;26.20;43.00
33207;DHT22;19565;46.602;11.534;2022-08-21T11:17:22;26.20;42.30
33207;DHT22;19565;46.602;11.534;2022-08-21T11:19:54;26.30;41.40
33207;DHT22;19565;46.602;11.534;2022-08-21T11:22:31;26.30;41.60
33207;DHT22;19565;46.602;11.534;2022-08-21T11:25:05;26.30;41.40
33207;DHT22;19565;46.602;11.534;2022-08-21T11:27:40;26.30;41.40
33207;DHT22;19565;46.602;11.534;2022-08-21T11:30:09;26.40;41.20
33207;DHT22;19565;46.602;11.534;2022-08-21T11:32:57;26.50;41.20
33207;DHT22;19565;46.602;11.534;2022-08-21T11:35:34;26.60;40.60
33207;DHT22;19565;46.602;11.534;2022-08-21T11:38:26;26.60;40.90
33207;DHT22;19565;46.602;11.534;2022-08-21T11:41:11;26.60;41.50
33207;DHT22;19565;46.602;11.534;2022-08-21T11:43:43;26.60;40.60
33207;DHT22;19565;46.602;11.534;2022-08-21T11:46:19;26.70;41.00
33207;DHT22;19565;46.602;11.534;2022-08-21T11:49:03;26.80;40.70
33207;DHT22;19565;46.602;11.534;2022-08-21T11:51:42;26.90;40.80
33207;DHT22;19565;46.602;11.534;2022-08-21T11:54:19;27.10;40.60
33207;DHT22;19565;46.602;11.534;2022-08-21T11:56:55;27.20;41.20
33207;DHT22;19565;46.602;11.534;2022-08-21T11:59:37;27.30;40.70
33207;DHT22;19565;46.602;11.534;2022-08-21T12:02:12;27.30;39.40
33207;DHT22;19565;46.602;11.534;2022-08-21T12:04:48;27.40;39.60
33207;DHT22;19565;46.602;11.534;2022-08-21T12:07:30;27.40;38.80
33207;DHT22;19565;46.602;11.534;2022-08-21T12:09:59;27.40;38.20
33207;DHT22;19565;46.602;11.534;2022-08-21T12:12:29;27.50;39.20
33207;DHT22;19565;46.602;11.534;2022-08-21T12:15:23;27.50;39.10
33207;DHT22;19565;46.602;11.534;2022-08-21T12:17:55;27.50;39.10
33207;DHT22;19565;46.602;11.534;2022-08-21T12:20:43;27.60;38.30
33207;DHT22;19565;46.602;11.534;2022-08-21T12:23:24;27.60;38.90
33207;DHT22;19565;46.602;11.534;2022-08-21T12:26:23;27.60;39.20
33207;DHT22;19565;46.602;11.534;2022-08-21T12:29:13;27.60;38.90
33207;DHT22;19565;46.602;11.534;2022-08-21T12:31:56;27.70;38.10
33207;DHT22;19565;46.602;11.534;2022-08-21T12:34:35;27.70;37.70
33207;DHT22;19565;46.602;11.534;2022-08-21T12:37:11;27.80;38.60
33207;DHT22;19565;46.602;11.534;2022-08-21T12:39:45;27.80;37.10
33207;DHT22;19565;46.602;11.534;2022-08-21T12:42:17;27.90;37.90
33207;DHT22;19565;46.602;11.534;2022-08-21T12:44:49;27.90;38.60
33207;DHT22;19565;46.602;11.534;2022-08-21T12:47:33;28.10;37.20
33207;DHT22;19565;46.602;11.534;2022-08-21T12:50:05;28.10;38.10
33207;DHT22;19565;46.602;11.534;2022-08-21T12:52:39;28.10;35.60
33207;DHT22;19565;46.602;11.534;2022-08-21T12:55:11;28.10;37.80
33207;DHT22;19565;46.602;11.534;2022-08-21T12:57:40;28.10;37.70
33207;DHT22;19565;46.602;11.534;2022-08-21T13:00:13;28.30;37.90
33207;DHT22;19565;46.602;11.534;2022-08-21T13:02:47;28.40;36.60
33207;DHT22;19565;46.602;11.534;2022-08-21T13:05:25;28.40;36.40
33207;DHT22;19565;46.602;11.534;2022-08-21T13:07:56;28.40;36.80
33207;DHT22;19565;46.602;11.534;2022-08-21T13:10:27;28.40;36.40
33207;DHT22;19565;46.602;11.534;2022-08-21T13:12:58;28.30;36.60
33207;DHT22;19565;46.602;11.534;2022-08-21T13:15:40;28.30;36.40
33207;DHT22;19565;46.602;11.534;2022-08-21T13:18:20;28.40;36.60
33207;DHT22;19565;46.602;11.534;2022-08-21T13:20:49;28.40;37.00
33207;DHT22;19565;46.602;11.534;2022-08-21T13:23:24;28.40;36.10
33207;DHT22;19565;46.602;11.534;2022-08-21T13:25:53;28.50;35.90
33207;DHT22;19565;46.602;11.534;2022-08-21T13:28:22;28.60;35.50
33207;DHT22;19565;46.602;11.534;2022-08-21T13:30:53;28.50;35.30
33207;DHT22;19565;46.602;11.534;2022-08-21T13:33:24;28.50;35.70
33207;DHT22;19565;46.602;11.534;2022-08-21T13:36:07;28.40;35.50
33207;DHT22;19565;46.602;11.534;2022-08-21T13:38:40;28.30;36.00
33207;DHT22;19565;46.602;11.534;2022-08-21T13:41:16;28.30;37.10
33207;DHT22;19565;46.602;11.534;2022-08-21T13:43:50;28.30;35.10
33207;DHT22;19565;46.602;11.534;2022-08-21T13:46:24;28.30;35.50
33207;DHT22;19565;46.602;11.534;2022-08-21T13:48:54;28.30;35.80
33207;DHT22;19565;46.602;11.534;2022-08-21T13:51:23;28.50;34.70
33207;DHT22;19565;46.602;11.534;2022-08-21T13:53:53;28.60;34.50
33207;DHT22;19565;46.602;11.534;2022-08-21T13:56:24;28.60;35.20
33207;DHT22;19565;46.602;11.534;2022-08-21T13:58:54;28.60;34.70
33207;DHT22;19565;46.602;11.534;2022-08-21T14:01:25;28.70;35.00
33207;DHT22;19565;46.602;11.534;2022-08-21T14:03:57;28.70;34.10
33207;DHT22;19565;46.602;11.534;2022-08-21T14:06:28;28.70;35.80
33207;DHT22;19565;46.602;11.534;2022-08-21T14:09:08;28.80;35.60
33207;DHT22;19565;46.602;11.534;2022-08-21T14:11:37;28.80;34.20
33207;DHT22;19565;46.602;11.534;2022-08-21T14:14:16;28.90;35.20
33207;DHT22;19565;46.602;11.534;2022-08-21T14:16:55;28.90;33.00
33207;DHT22;19565;46.602;11.534;2022-08-21T14:19:27;28.90;32.60
33207;DHT22;19565;46.602;11.534;2022-08-21T14:21:55;28.90;33.10
33207;DHT22;19565;46.602;11.534;2022-08-21T14:24:29;28.90;33.40
33207;DHT22;19565;46.602;11.534;2022-08-21T14:27:05;29.00;34.50
33207;DHT22;19565;46.602;11.534;2022-08-21T14:29:35;29.10;33.90
33207;DHT22;19565;46.602;11.534;2022-08-21T14:32:15;29.20;34.00
33207;DHT22;19565;46.602;11.534;2022-08-21T14:34:50;29.30;33.80
33207;DHT22;19565;46.602;11.534;2022-08-21T14:37:20;29.70;31.10
33207;DHT22;19565;46.602;11.534;2022-08-21T14:39:49;30.10;30.90
33207;DHT22;19565;46.602;11.534;2022-08-21T14:42:18;30.70;30.30
33207;DHT22;19565;46.602;11.534;2022-08-21T14:44:46;31.40;28.30
33207;DHT22;19565;46.602;11.534;2022-08-21T14:47:15;31.70;28.20
33207;DHT22;19565;46.602;11.534;2022-08-21T14:49:43;32.20;27.70
33207;DHT22;19565;46.602;11.534;2022-08-21T14:52:11;32.80;27.50
33207;DHT22;19565;46.602;11.534;2022-08-21T14:54:39;33.30;26.80
33207;DHT22;19565;46.602;11.534;2022-08-21T14:57:11;33.80;26.90
33207;DHT22;19565;46.602;11.534;2022-08-21T14:59:40;34.10;26.30
33207;DHT22;19565;46.602;11.534;2022-08-21T15:02:09;34.20;26.80
33207;DHT22;19565;46.602;11.534;2022-08-21T15:04:37;34.30;26.80
33207;DHT22;19565;46.602;11.534;2022-08-21T15:07:05;34.20;26.60
33207;DHT22;19565;46.602;11.534;2022-08-21T15:09:33;33.90;27.00
33207;DHT22;19565;46.602;11.534;2022-08-21T15:12:02;34.00;26.50
33207;DHT22;19565;46.602;11.534;2022-08-21T15:14:34;34.20;26.10
33207;DHT22;19565;46.602;11.534;2022-08-21T15:17:04;34.30;26.50
33207;DHT22;19565;46.602;11.534;2022-08-21T15:19:33;34.50;25.80
33207;DHT22;19565;46.602;11.534;2022-08-21T15:22:04;34.50;25.90
33207;DHT22;19565;46.602;11.534;2022-08-21T15:24:41;34.50;26.20
33207;DHT22;19565;46.602;11.534;2022-08-21T15:27:10;34.10;26.10
33207;DHT22;19565;46.602;11.534;2022-08-21T15:29:43;34.20;25.80
33207;DHT22;19565;46.602;11.534;2022-08-21T15:32:18;33.90;25.40
33207;DHT22;19565;46.602;11.534;2022-08-21T15:34:46;33.30;25.70
33207;DHT22;19565;46.602;11.534;2022-08-21T15:37:14;32.90;25.80
33207;DHT22;19565;46.602;11.534;2022-08-21T15:39:43;32.40;25.60
33207;DHT22;19565;46.602;11.534;2022-08-21T15:42:20;32.00;26.70
33207;DHT22;19565;46.602;11.534;2022-08-21T15:44:53;31.30;27.30
33207;DHT22;19565;46.602;11.534;2022-08-21T15:47:25;30.70;28.40
33207;DHT22;19565;46.602;11.534;2022-08-21T15:49:54;30.30;29.20